Terminal Aerodrome Forecast
Issued by NWS Topeka, KS

Home | Current Version | Previous Version | Text Only | Print | Product List | Glossary On
Versions: 1 2 3 4 5 6 7 8 9 10 11 12
000
FTUS43 KTOP 041736
TAFTOP
TAF
KTOP 041736Z 0418/0518 15007KT P6SM SCT070 BKN150
     FM042200 17008KT P6SM VCTS SCT050CB BKN100
      TEMPO 0423/0503 VRB12G20KT TSRA BKN030CB
     FM050600 15007KT P6SM SCT060 BKN120
     FM051100 11005KT P6SM VCTS SCT010 BKN035CB=

USA.gov is the U.S. government's official web portal to all federal, state and local government web resources and services.